Time;durP1;ratioP1;P1;durP2;ratioP2;P2;SDS_P1;SDS_P2;PMS_P1;PMS_P2;Temp;Humidity;BMP_temperature;BMP_pressure;BME280_temperature;BME280_humidity;BME280_pressure;Samples;Min_cycle;Max_cycle;Signal;HPM_P1;HPM_P2
2022/11/06 00:00:39;;;;;;;0.90;0.38;;;9.70;92.00;;;;;;5047569;28;20043;-73
2022/11/06 00:03:06;;;;;;;1.08;0.50;;;9.70;91.80;;;;;;5047361;28;20032;-73
2022/11/06 00:08:26;;;;;;;1.25;0.50;;;10.00;91.30;;;;;;5048605;28;20109;-73
2022/11/06 00:10:52;;;;;;;1.05;0.40;;;9.90;91.60;;;;;;5048477;28;20037;-73
2022/11/06 00:13:17;;;;;;;1.08;0.45;;;9.80;91.70;;;;;;5049398;28;20048;-73
2022/11/06 00:15:43;;;;;;;0.57;0.35;;;9.80;91.60;;;;;;5049620;28;20061;-73
2022/11/06 00:18:08;;;;;;;1.30;0.50;;;9.70;91.90;;;;;;5048971;28;20127;-73
2022/11/06 00:20:35;;;;;;;1.08;0.50;;;9.70;91.90;;;;;;5041023;28;20049;-73
2022/11/06 00:23:01;;;;;;;1.23;0.52;;;9.60;92.20;;;;;;5033796;28;20048;-73
2022/11/06 00:25:26;;;;;;;0.65;0.28;;;9.30;92.40;;;;;;5032590;28;20025;-73
2022/11/06 00:27:52;;;;;;;2.22;0.70;;;9.30;92.60;;;;;;5035536;28;20021;-73
2022/11/06 00:30:19;;;;;;;0.60;0.30;;;9.00;93.20;;;;;;5045685;28;20063;-73
2022/11/06 00:32:46;;;;;;;0.32;0.20;;;9.00;93.30;;;;;;5048264;28;20084;-73
2022/11/06 00:35:12;;;;;;;1.02;0.50;;;9.00;93.10;;;;;;5052668;28;20471;-73
2022/11/06 00:37:38;;;;;;;2.20;0.50;;;9.10;92.80;;;;;;5049781;28;20029;-73
2022/11/06 00:40:04;;;;;;;0.75;0.30;;;9.30;92.20;;;;;;5040601;28;20037;-73
2022/11/06 00:42:30;;;;;;;0.93;0.40;;;9.40;92.30;;;;;;5051826;28;20114;-73
2022/11/06 00:44:56;;;;;;;1.00;0.52;;;9.50;92.00;;;;;;5050997;28;20060;-73
2022/11/06 00:47:23;;;;;;;1.30;0.60;;;9.50;92.60;;;;;;5052346;28;20057;-73
2022/11/06 00:49:48;;;;;;;0.73;0.30;;;9.30;92.80;;;;;;5051243;28;20031;-73
2022/11/06 00:52:14;;;;;;;0.75;0.30;;;9.40;92.30;;;;;;5052643;28;20021;-73
2022/11/06 00:54:40;;;;;;;0.95;0.60;;;9.80;91.80;;;;;;5051368;28;20066;-73
2022/11/06 00:57:05;;;;;;;0.70;0.30;;;9.80;91.50;;;;;;5052298;28;20021;-73
2022/11/06 00:59:31;;;;;;;0.68;0.45;;;9.80;91.80;;;;;;5050899;28;20483;-73
2022/11/06 01:01:57;;;;;;;1.08;0.63;;;9.80;91.50;;;;;;5052065;28;20372;-73
2022/11/06 01:04:24;;;;;;;0.80;0.35;;;9.60;92.00;;;;;;5051306;28;20037;-73
2022/11/06 01:06:52;;;;;;;0.93;0.30;;;9.50;92.30;;;;;;5051031;28;20124;-73
2022/11/06 01:09:20;;;;;;;0.65;0.22;;;9.30;92.80;;;;;;5061867;28;20032;-74
2022/11/06 01:11:52;;;;;;;1.00;0.28;;;8.90;93.10;;;;;;5061126;28;20498;-73
2022/11/06 01:14:19;;;;;;;1.33;0.40;;;8.70;93.40;;;;;;5052331;28;20032;-73
2022/11/06 01:16:45;;;;;;;1.30;0.40;;;8.60;93.60;;;;;;5050655;28;20139;-73
2022/11/06 01:19:12;;;;;;;1.30;0.40;;;8.90;93.60;;;;;;5051884;28;20397;-73
2022/11/06 01:21:40;;;;;;;1.05;0.50;;;8.80;93.30;;;;;;5050389;28;20103;-73
2022/11/06 01:24:15;;;;;;;2.15;0.47;;;8.90;93.30;;;;;;5051746;28;20029;-73
2022/11/06 01:26:41;;;;;;;1.50;0.50;;;8.90;93.40;;;;;;5052340;28;20040;-73
2022/11/06 01:29:11;;;;;;;1.10;0.40;;;8.90;93.30;;;;;;5055845;28;20025;-73
2022/11/06 01:31:37;;;;;;;1.30;0.38;;;9.00;93.20;;;;;;5054550;28;20036;-73
2022/11/06 01:34:04;;;;;;;1.33;0.50;;;8.90;93.30;;;;;;5055757;28;20025;-73
2022/11/06 01:36:30;;;;;;;0.75;0.40;;;8.90;93.30;;;;;;5054216;28;20036;-73
2022/11/06 01:38:59;;;;;;;1.13;0.55;;;8.80;93.20;;;;;;5055469;28;20037;-73
2022/11/06 01:41:28;;;;;;;2.92;0.75;;;9.00;93.10;;;;;;5054294;28;20449;-73
2022/11/06 01:43:55;;;;;;;0.85;0.38;;;9.10;92.90;;;;;;5053994;28;20036;-73
2022/11/06 01:46:26;;;;;;;0.88;0.30;;;9.10;92.80;;;;;;5055262;28;20033;-73
2022/11/06 01:49:09;;;;;;;1.40;0.70;;;9.10;92.70;;;;;;5054314;28;20032;-73
2022/11/06 01:51:44;;;;;;;2.45;0.38;;;9.00;93.00;;;;;;5054936;28;20087;-73
2022/11/06 01:54:11;;;;;;;1.30;0.32;;;9.00;93.00;;;;;;5053616;28;20039;-73
2022/11/06 01:56:38;;;;;;;1.45;0.50;;;9.10;93.00;;;;;;5055203;28;20055;-73
2022/11/06 01:59:06;;;;;;;1.42;0.38;;;9.10;92.80;;;;;;5054142;28;20028;-73
2022/11/06 02:01:32;;;;;;;1.67;0.30;;;9.10;92.90;;;;;;5053938;28;20035;-73
2022/11/06 02:04:13;;;;;;;0.85;0.40;;;9.10;92.70;;;;;;5053135;28;20013;-73
2022/11/06 02:06:39;;;;;;;1.52;0.57;;;9.00;93.00;;;;;;5034837;28;20029;-73
2022/11/06 02:09:10;;;;;;;0.50;0.30;;;9.10;92.90;;;;;;5041773;28;20040;-73
2022/11/06 02:11:42;;;;;;;1.00;0.43;;;9.00;93.30;;;;;;5053856;28;20017;-73
2022/11/06 02:14:18;;;;;;;0.77;0.30;;;8.80;94.20;;;;;;5055110;28;20025;-73
2022/11/06 02:16:49;;;;;;;1.77;0.40;;;8.70;93.30;;;;;;5053662;28;20585;-73
2022/11/06 02:19:27;;;;;;;1.63;0.55;;;8.90;93.20;;;;;;5054689;28;20100;-73
2022/11/06 02:22:01;;;;;;;0.50;0.25;;;8.90;93.40;;;;;;5053437;28;20044;-73
2022/11/06 02:24:45;;;;;;;1.13;0.40;;;8.90;92.90;;;;;;5054740;28;20386;-73
2022/11/06 02:27:17;;;;;;;3.40;0.55;;;9.00;92.90;;;;;;5053116;28;20467;-73
2022/11/06 02:30:01;;;;;;;1.20;0.30;;;9.00;92.60;;;;;;5054831;28;20025;-73
2022/11/06 02:32:29;;;;;;;3.13;0.38;;;9.20;92.50;;;;;;5053467;28;20116;-73
2022/11/06 02:35:00;;;;;;;0.70;0.32;;;8.80;93.60;;;;;;5053331;28;20025;-73
2022/11/06 02:37:31;;;;;;;0.82;0.30;;;8.70;93.30;;;;;;5053760;28;20060;-73
2022/11/06 02:40:01;;;;;;;1.83;0.55;;;8.80;93.30;;;;;;5052655;28;20028;-73
2022/11/06 02:42:28;;;;;;;1.08;0.32;;;8.70;93.50;;;;;;5054363;28;20116;-73
2022/11/06 02:44:56;;;;;;;2.30;0.63;;;8.60;93.50;;;;;;5053051;28;20028;-73
2022/11/06 02:47:25;;;;;;;0.90;0.40;;;8.70;93.10;;;;;;5054039;28;20116;-73
2022/11/06 02:50:00;;;;;;;1.30;0.52;;;8.70;93.40;;;;;;5052646;28;20035;-73
2022/11/06 02:52:40;;;;;;;0.47;0.22;;;8.60;93.50;;;;;;5053298;28;20017;-73
2022/11/06 02:55:22;;;;;;;2.53;0.52;;;8.50;93.60;;;;;;5052910;28;20035;-73
2022/11/06 02:57:58;;;;;;;0.70;0.28;;;8.80;93.10;;;;;;5052513;28;20033;-73
2022/11/06 03:00:26;;;;;;;1.38;0.63;;;8.80;93.20;;;;;;5052449;28;20025;-73
2022/11/06 03:03:04;;;;;;;0.85;0.68;;;8.80;93.40;;;;;;5053724;28;20037;-73
2022/11/06 03:05:52;;;;;;;2.08;0.32;;;8.70;93.70;;;;;;5052587;28;20029;-73
2022/11/06 03:08:33;;;;;;;0.52;0.20;;;8.60;94.00;;;;;;5052581;28;20035;-73
2022/11/06 03:11:24;;;;;;;1.48;0.55;;;8.30;94.20;;;;;;5051091;28;20063;-73
2022/11/06 03:14:07;;;;;;;0.55;0.28;;;8.10;94.80;;;;;;5052483;28;20456;-73
2022/11/06 03:16:48;;;;;;;0.60;0.30;;;8.10;94.50;;;;;;5033488;28;20049;-73
2022/11/06 03:19:33;;;;;;;1.05;0.60;;;8.10;94.90;;;;;;5051730;28;20104;-73
2022/11/06 03:22:10;;;;;;;0.52;0.22;;;7.90;95.00;;;;;;5053754;28;20044;-73
2022/11/06 03:24:51;;;;;;;1.42;0.47;;;7.50;95.80;;;;;;5038449;28;20068;-73
2022/11/06 03:27:27;;;;;;;0.73;0.40;;;7.00;96.80;;;;;;5052159;28;20043;-73
2022/11/06 03:30:01;;;;;;;0.63;0.20;;;7.30;96.20;;;;;;5052900;28;20391;-73
2022/11/06 03:32:30;;;;;;;0.55;0.15;;;7.60;95.80;;;;;;5052061;28;20413;-73
2022/11/06 03:35:10;;;;;;;0.85;0.40;;;7.90;95.20;;;;;;5036015;28;20441;-73
2022/11/06 03:37:41;;;;;;;1.55;0.50;;;7.70;95.40;;;;;;5052152;28;20029;-73
2022/11/06 03:40:12;;;;;;;0.88;0.30;;;7.80;95.30;;;;;;5053134;28;20040;-73
2022/11/06 03:42:40;;;;;;;0.73;0.30;;;7.90;95.10;;;;;;5050642;28;20041;-73
2022/11/06 03:45:12;;;;;;;0.85;0.38;;;8.00;94.90;;;;;;5052182;28;20029;-73
2022/11/06 03:47:44;;;;;;;0.30;0.20;;;8.10;94.70;;;;;;5052099;28;20032;-73
2022/11/06 03:50:19;;;;;;;1.48;0.60;;;8.10;94.90;;;;;;5052132;28;20575;-73
2022/11/06 03:53:10;;;;;;;1.85;0.68;;;8.10;94.50;;;;;;5052149;28;20127;-73
2022/11/06 03:55:50;;;;;;;0.82;0.52;;;8.10;94.60;;;;;;5048047;28;20048;-73
2022/11/06 03:58:22;;;;;;;0.70;0.30;;;8.00;94.70;;;;;;5050681;28;20044;-73
2022/11/06 04:00:50;;;;;;;0.32;0.20;;;8.00;94.70;;;;;;5051134;28;20044;-73
2022/11/06 04:03:54;;;;;;;0.47;0.20;;;8.10;94.30;;;;;;5044806;28;20129;-73
2022/11/06 04:06:35;;;;;;;0.80;0.30;;;8.20;94.40;;;;;;5035307;28;20045;-73
2022/11/06 04:14:36;;;;;;;0.90;0.30;;;8.20;94.20;;;;;;5045938;28;20071;-73
2022/11/06 04:17:05;;;;;;;0.55;0.20;;;8.20;94.20;;;;;;5044825;28;20041;-73
2022/11/06 04:19:31;;;;;;;0.57;0.20;;;8.00;94.70;;;;;;5044455;28;20044;-73
2022/11/06 04:22:03;;;;;;;1.00;0.20;;;7.90;94.80;;;;;;5044381;28;20418;-73
2022/11/06 04:28:21;;;;;;;0.85;0.30;;;7.90;95.00;;;;;;5013108;28;20106;-73
2022/11/06 04:31:11;;;;;;;2.13;0.65;;;7.80;95.00;;;;;;5048493;28;20152;-73
2022/11/06 04:33:48;;;;;;;1.38;0.40;;;7.70;95.10;;;;;;5046445;28;20044;-73
2022/11/06 04:36:44;;;;;;;1.42;0.20;;;7.80;94.90;;;;;;5038735;28;20355;-73
2022/11/06 04:39:38;;;;;;;0.40;0.15;;;7.70;95.30;;;;;;5030399;28;20589;-73
2022/11/06 04:42:21;;;;;;;1.13;0.38;;;7.70;95.00;;;;;;5047222;28;20704;-74
2022/11/06 04:44:51;;;;;;;1.08;0.38;;;7.80;95.00;;;;;;5047495;28;20036;-73
2022/11/06 04:47:19;;;;;;;0.73;0.28;;;7.90;95.00;;;;;;5047746;28;20107;-73
2022/11/06 04:49:49;;;;;;;0.50;0.30;;;8.10;94.50;;;;;;5046535;28;20532;-73
2022/11/06 04:52:20;;;;;;;0.88;0.30;;;8.10;94.60;;;;;;5046811;28;20054;-73
2022/11/06 04:54:47;;;;;;;0.65;0.38;;;8.10;94.50;;;;;;5045876;28;20075;-73
2022/11/06 04:57:12;;;;;;;0.52;0.20;;;8.10;94.60;;;;;;5046562;28;20037;-73
2022/11/06 04:59:38;;;;;;;0.82;0.38;;;8.10;94.50;;;;;;5048096;28;20108;-73
2022/11/06 05:02:05;;;;;;;0.75;0.30;;;8.10;94.40;;;;;;5050926;28;20036;-73
2022/11/06 05:04:30;;;;;;;0.50;0.43;;;8.10;94.30;;;;;;5050860;28;20120;-73
2022/11/06 05:06:56;;;;;;;1.02;0.38;;;8.10;94.60;;;;;;5050932;28;20554;-73
2022/11/06 05:09:22;;;;;;;0.85;0.20;;;8.10;94.40;;;;;;5059584;28;20048;-74
2022/11/06 05:11:48;;;;;;;0.35;0.20;;;8.10;94.50;;;;;;5065437;28;20036;-73
2022/11/06 05:14:14;;;;;;;0.65;0.40;;;8.00;94.70;;;;;;5048672;28;20041;-73
2022/11/06 05:16:39;;;;;;;1.48;0.40;;;8.00;94.70;;;;;;5051314;28;20044;-73
2022/11/06 05:19:06;;;;;;;1.77;0.40;;;8.00;94.80;;;;;;5050661;28;20041;-73
2022/11/06 05:24:15;;;;;;;0.93;0.23;;;7.90;95.00;;;;;;5049559;28;20390;-73
2022/11/06 05:26:41;;;;;;;1.08;0.40;;;7.80;95.30;;;;;;5050362;28;20033;-73
2022/11/06 05:29:07;;;;;;;0.90;0.32;;;7.80;95.30;;;;;;5050933;28;20141;-73
2022/11/06 05:31:33;;;;;;;1.02;0.40;;;7.70;95.50;;;;;;5051893;28;20025;-73
2022/11/06 05:33:58;;;;;;;0.65;0.30;;;7.60;95.70;;;;;;5049634;28;20036;-73
2022/11/06 05:36:24;;;;;;;1.05;0.32;;;7.60;95.50;;;;;;5051358;28;20029;-73
2022/11/06 05:38:50;;;;;;;0.40;0.20;;;7.60;95.70;;;;;;5050005;28;20048;-73
2022/11/06 05:41:16;;;;;;;0.75;0.30;;;7.50;96.10;;;;;;5051232;28;20017;-73
2022/11/06 05:43:41;;;;;;;1.40;0.50;;;7.20;96.50;;;;;;5050109;28;20029;-73
2022/11/06 05:46:07;;;;;;;0.63;0.28;;;7.10;96.80;;;;;;5047289;28;20383;-73
2022/11/06 05:48:33;;;;;;;1.10;0.38;;;6.90;97.20;;;;;;5046280;28;20099;-73
2022/11/06 05:51:00;;;;;;;0.90;0.40;;;6.90;97.20;;;;;;5046311;28;20044;-73
2022/11/06 05:53:26;;;;;;;2.53;0.35;;;6.90;97.60;;;;;;5046686;28;20159;-73
2022/11/06 05:55:51;;;;;;;0.77;0.28;;;6.70;97.90;;;;;;5050409;28;20104;-73
2022/11/06 05:58:17;;;;;;;1.63;0.47;;;6.60;97.80;;;;;;5050503;28;20037;-73
2022/11/06 06:00:43;;;;;;;0.63;0.32;;;6.70;97.90;;;;;;5051666;28;20025;-73
2022/11/06 06:03:10;;;;;;;0.43;0.20;;;6.60;98.10;;;;;;5049649;28;20044;-73
2022/11/06 06:05:35;;;;;;;0.73;0.22;;;6.70;97.50;;;;;;5047361;28;20115;-73
2022/11/06 06:08:01;;;;;;;1.15;0.70;;;6.70;97.70;;;;;;5047257;28;20104;-73
2022/11/06 06:10:26;;;;;;;0.98;0.32;;;6.80;97.30;;;;;;5050937;28;20112;-73
2022/11/06 06:12:52;;;;;;;0.25;0.20;;;6.90;97.40;;;;;;5048317;28;20158;-73
2022/11/06 06:15:18;;;;;;;0.40;0.30;;;6.60;97.60;;;;;;5050060;28;20485;-73
2022/11/06 06:17:45;;;;;;;0.25;0.15;;;6.70;97.80;;;;;;5050738;28;20044;-73
2022/11/06 06:20:11;;;;;;;1.25;0.40;;;6.70;97.70;;;;;;5049436;28;20033;-73
2022/11/06 06:22:36;;;;;;;0.95;0.50;;;6.70;97.70;;;;;;5050335;28;20052;-73
2022/11/06 06:25:03;;;;;;;1.75;0.40;;;6.50;98.00;;;;;;5050652;28;20025;-73
2022/11/06 06:27:30;;;;;;;1.10;0.40;;;6.40;98.30;;;;;;5049366;28;20630;-73
2022/11/06 06:29:55;;;;;;;1.27;0.40;;;6.50;98.30;;;;;;5051025;28;20125;-73
2022/11/06 06:32:21;;;;;;;0.88;0.30;;;6.50;98.30;;;;;;5049700;28;20475;-73
2022/11/06 06:34:47;;;;;;;0.93;0.43;;;6.70;98.10;;;;;;5050458;28;20017;-73
2022/11/06 06:37:12;;;;;;;0.73;0.30;;;6.70;98.00;;;;;;5049089;28;20476;-73
2022/11/06 06:39:38;;;;;;;0.77;0.50;;;6.50;98.00;;;;;;5048234;28;20138;-73
2022/11/06 06:42:04;;;;;;;0.82;0.40;;;6.20;98.80;;;;;;5046479;28;20390;-73
2022/11/06 06:44:29;;;;;;;0.32;0.30;;;6.20;98.90;;;;;;5046081;28;20359;-73
2022/11/06 06:46:55;;;;;;;0.63;0.22;;;6.50;98.50;;;;;;5047313;28;20090;-73
2022/11/06 06:49:21;;;;;;;1.38;0.57;;;6.40;98.60;;;;;;5045689;28;20915;-73
2022/11/06 06:51:47;;;;;;;0.75;0.38;;;6.40;98.50;;;;;;5047104;28;20025;-74
2022/11/06 06:54:13;;;;;;;0.52;0.40;;;6.40;98.70;;;;;;5046703;28;20033;-73
2022/11/06 06:56:39;;;;;;;3.20;0.60;;;6.50;98.60;;;;;;5047097;28;20036;-73
2022/11/06 06:59:06;;;;;;;0.30;0.20;;;6.60;98.20;;;;;;5045424;28;20029;-73
2022/11/06 07:01:32;;;;;;;0.60;0.30;;;6.80;98.20;;;;;;5046880;28;20024;-73
2022/11/06 07:03:58;;;;;;;1.45;0.40;;;6.80;97.90;;;;;;5045608;28;20552;-73
2022/11/06 07:06:23;;;;;;;1.45;0.50;;;7.00;97.70;;;;;;5046564;28;20391;-73
2022/11/06 07:08:49;;;;;;;1.92;0.20;;;6.50;98.90;;;;;;5045318;28;20033;-73
2022/11/06 07:11:17;;;;;;;0.75;0.32;;;6.50;98.80;;;;;;5047072;28;20104;-74
2022/11/06 07:13:42;;;;;;;0.60;0.20;;;6.00;99.80;;;;;;5045816;28;20488;-73
2022/11/06 07:16:10;;;;;;;0.85;0.30;;;6.10;99.90;;;;;;5046528;28;20040;-73
2022/11/06 07:18:36;;;;;;;0.75;0.40;;;6.40;99.20;;;;;;5045022;28;20024;-73
2022/11/06 07:21:07;;;;;;;1.42;0.65;;;6.60;99.50;;;;;;5046403;28;20028;-73
2022/11/06 07:23:34;;;;;;;0.65;0.35;;;6.50;99.50;;;;;;5044310;28;20037;-73
2022/11/06 07:26:01;;;;;;;0.60;0.32;;;6.50;99.60;;;;;;5046050;28;20104;-73
2022/11/06 07:28:27;;;;;;;2.35;0.50;;;6.30;99.90;;;;;;5044658;28;20509;-73
2022/11/06 07:31:06;;;;;;;0.35;0.20;;;6.20;99.90;;;;;;5046352;28;20037;-73
2022/11/06 07:33:33;;;;;;;2.85;0.43;;;6.10;99.90;;;;;;5044990;28;20522;-73
2022/11/06 07:36:06;;;;;;;0.77;0.40;;;6.30;99.90;;;;;;5046197;28;20040;-73
2022/11/06 07:38:33;;;;;;;1.27;0.47;;;6.40;99.70;;;;;;5044568;28;20037;-73
2022/11/06 07:41:08;;;;;;;0.93;0.40;;;6.50;99.80;;;;;;5028533;28;20028;-73
2022/11/06 07:43:34;;;;;;;1.75;0.57;;;6.70;99.70;;;;;;5044795;28;20041;-73
2022/11/06 07:46:05;;;;;;;0.57;0.32;;;6.70;99.90;;;;;;5043400;28;20390;-73
2022/11/06 07:48:31;;;;;;;0.10;0.10;;;6.70;99.90;;;;;;5045872;28;20486;-73
2022/11/06 07:50:58;;;;;;;0.55;0.28;;;6.50;99.90;;;;;;5044436;28;20029;-73
2022/11/06 07:53:24;;;;;;;1.10;0.25;;;6.60;99.90;;;;;;5046212;28;20025;-73
2022/11/06 07:55:51;;;;;;;0.98;0.30;;;6.70;99.50;;;;;;5042778;28;20391;-73
2022/11/06 07:58:18;;;;;;;1.65;0.40;;;6.80;99.90;;;;;;5045087;28;20042;-73
2022/11/06 08:00:52;;;;;;;2.08;0.38;;;6.70;99.40;;;;;;5044646;28;20029;-73
2022/11/06 08:03:18;;;;;;;4.57;0.30;;;7.00;99.60;;;;;;5045604;28;20382;-73
2022/11/06 08:05:44;;;;;;;2.67;1.25;;;6.90;99.70;;;;;;5044552;28;20520;-73
2022/11/06 08:08:10;;;;;;;2.45;1.20;;;6.90;99.70;;;;;;5044562;28;20086;-73
2022/11/06 08:10:39;;;;;;;1.15;0.50;;;6.90;99.30;;;;;;5045498;28;20021;-73
2022/11/06 08:13:08;;;;;;;2.50;0.85;;;7.00;99.90;;;;;;5043614;28;20028;-73
2022/11/06 08:15:36;;;;;;;1.77;0.80;;;7.00;99.90;;;;;;5045261;28;20024;-73
2022/11/06 08:18:02;;;;;;;1.02;0.50;;;7.00;99.90;;;;;;5065836;28;20131;-73
2022/11/06 08:20:28;;;;;;;0.73;0.45;;;7.00;99.90;;;;;;5056399;28;20565;-73
2022/11/06 08:22:58;;;;;;;1.35;0.50;;;7.00;99.90;;;;;;5047992;28;20032;-73
2022/11/06 08:25:24;;;;;;;1.42;0.70;;;6.80;99.90;;;;;;5048039;28;20078;-73
2022/11/06 08:27:54;;;;;;;2.03;0.57;;;7.00;99.60;;;;;;5046913;28;20033;-73
2022/11/06 08:30:20;;;;;;;0.77;0.40;;;7.00;99.90;;;;;;5038368;28;20541;-73
2022/11/06 08:32:45;;;;;;;1.83;0.50;;;6.90;99.90;;;;;;5047391;28;20029;-73
2022/11/06 08:35:11;;;;;;;1.60;0.55;;;7.00;99.00;;;;;;5045310;28;20021;-73
2022/11/06 08:37:37;;;;;;;2.55;0.75;;;7.10;99.20;;;;;;5044679;28;20025;-73
2022/11/06 08:40:03;;;;;;;1.98;0.57;;;7.10;99.00;;;;;;5048041;28;20025;-73
2022/11/06 08:42:29;;;;;;;0.88;0.40;;;7.10;99.40;;;;;;5048730;28;20502;-73
2022/11/06 08:44:55;;;;;;;1.30;0.40;;;7.00;99.70;;;;;;5048451;28;20028;-73
2022/11/06 08:47:20;;;;;;;4.63;0.35;;;7.00;99.70;;;;;;5048003;28;20033;-73
2022/11/06 08:49:46;;;;;;;1.33;0.52;;;6.90;99.90;;;;;;5048144;28;20056;-73
2022/11/06 08:52:11;;;;;;;2.85;0.80;;;7.00;99.90;;;;;;5056919;28;20111;-73
2022/11/06 08:54:37;;;;;;;4.82;0.93;;;7.10;99.90;;;;;;5054692;28;20045;-75
2022/11/06 08:57:03;;;;;;;1.60;0.45;;;6.90;99.90;;;;;;5041845;28;20025;-73
2022/11/06 08:59:28;;;;;;;0.55;0.30;;;7.10;99.50;;;;;;5048159;28;20033;-73
2022/11/06 09:01:56;;;;;;;2.63;0.55;;;7.30;98.90;;;;;;5048344;28;20032;-73
2022/11/06 09:04:21;;;;;;;1.00;0.43;;;7.50;98.20;;;;;;5048264;28;20033;-73
2022/11/06 09:06:47;;;;;;;2.50;1.00;;;7.60;98.20;;;;;;5052628;28;20651;-74
2022/11/06 09:09:13;;;;;;;1.02;0.45;;;7.40;98.50;;;;;;5058106;28;20052;-74
2022/11/06 09:11:38;;;;;;;1.30;0.60;;;7.60;98.60;;;;;;5048000;28;20400;-73
2022/11/06 09:14:04;;;;;;;0.65;0.38;;;7.60;98.20;;;;;;5047680;28;20087;-73
2022/11/06 09:16:30;;;;;;;0.90;0.50;;;7.80;97.90;;;;;;5047655;28;20048;-73
2022/11/06 09:18:56;;;;;;;1.13;0.50;;;7.90;98.00;;;;;;5047860;28;20037;-73
2022/11/06 09:21:22;;;;;;;1.25;0.52;;;8.00;97.80;;;;;;5047451;28;20032;-73
2022/11/06 09:23:48;;;;;;;1.20;0.52;;;8.00;98.10;;;;;;5047661;28;20398;-73
2022/11/06 09:26:14;;;;;;;1.05;0.50;;;8.10;98.20;;;;;;5046316;28;20068;-73
2022/11/06 09:28:41;;;;;;;0.80;0.30;;;8.20;98.10;;;;;;5044869;28;20040;-73
2022/11/06 09:31:07;;;;;;;1.30;0.50;;;8.10;98.00;;;;;;5042764;28;20033;-73
2022/11/06 09:33:33;;;;;;;1.00;0.52;;;8.20;97.70;;;;;;5043276;28;20111;-73
2022/11/06 09:36:03;;;;;;;1.85;0.73;;;8.40;97.70;;;;;;5040903;28;20044;-73
2022/11/06 09:38:28;;;;;;;1.63;0.60;;;8.50;97.60;;;;;;5043248;28;20560;-73
2022/11/06 09:40:56;;;;;;;0.98;0.40;;;8.50;97.40;;;;;;5046700;28;20036;-76
2022/11/06 09:43:59;;;;;;;1.20;0.43;;;8.50;97.40;;;;;;5043626;28;20035;-73
2022/11/06 09:46:26;;;;;;;0.90;0.40;;;8.60;96.80;;;;;;5043538;28;20051;-72
2022/11/06 09:49:17;;;;;;;0.45;0.25;;;8.70;96.80;;;;;;5046338;28;20040;-73
2022/11/06 09:51:52;;;;;;;1.48;0.75;;;8.70;96.60;;;;;;5057731;28;20063;-73
2022/11/06 09:54:33;;;;;;;1.85;0.77;;;8.80;96.90;;;;;;5058128;28;20486;-73
2022/11/06 09:57:27;;;;;;;1.10;0.55;;;8.90;97.10;;;;;;5031908;28;20065;-73
2022/11/06 09:59:55;;;;;;;1.15;0.70;;;8.90;96.80;;;;;;5004713;28;20494;-73
2022/11/06 10:02:30;;;;;;;2.95;0.57;;;9.00;97.40;;;;;;5049878;28;20368;-73
2022/11/06 10:05:18;;;;;;;1.63;0.60;;;9.00;96.60;;;;;;5033910;28;20037;-73
2022/11/06 10:07:45;;;;;;;1.90;0.70;;;9.20;96.60;;;;;;5034472;28;20071;-73
2022/11/06 10:10:21;;;;;;;1.45;0.70;;;9.30;96.40;;;;;;5047297;28;20033;-73
2022/11/06 10:13:08;;;;;;;1.60;0.70;;;9.40;96.40;;;;;;5034658;28;20025;-73
2022/11/06 10:15:39;;;;;;;1.73;0.90;;;9.40;95.50;;;;;;5047031;28;20090;-73
2022/11/06 10:18:28;;;;;;;7.30;3.28;;;9.50;96.30;;;;;;5045802;28;20052;-72
2022/11/06 10:21:14;;;;;;;4.40;1.05;;;9.60;96.10;;;;;;5030721;28;20034;-73
2022/11/06 10:23:47;;;;;;;2.83;0.80;;;9.70;96.20;;;;;;5032534;28;20467;-73
2022/11/06 10:26:29;;;;;;;1.65;0.70;;;9.80;96.10;;;;;;5038171;28;20051;-73
2022/11/06 10:29:20;;;;;;;1.38;0.50;;;10.30;96.20;;;;;;5035721;28;20044;-73
2022/11/06 10:31:48;;;;;;;2.20;0.60;;;10.20;95.60;;;;;;5018682;28;20042;-73
2022/11/06 10:34:22;;;;;;;2.65;0.93;;;10.10;96.00;;;;;;5011149;28;20037;-73
2022/11/06 10:36:58;;;;;;;2.55;0.73;;;10.10;95.60;;;;;;5009986;28;21081;-73
2022/11/06 10:39:33;;;;;;;1.30;0.50;;;10.20;95.50;;;;;;5034557;28;20031;-73
2022/11/06 10:42:10;;;;;;;1.58;0.70;;;10.20;95.20;;;;;;5019311;28;20060;-73
2022/11/06 10:44:45;;;;;;;1.83;0.80;;;10.40;96.10;;;;;;5036591;28;20040;-73
2022/11/06 10:47:22;;;;;;;1.42;0.57;;;10.60;95.80;;;;;;5019941;28;20041;-73
2022/11/06 10:49:54;;;;;;;1.38;0.60;;;10.50;95.40;;;;;;5025519;28;20526;-73
2022/11/06 10:52:36;;;;;;;2.03;0.50;;;10.40;94.40;;;;;;5021196;28;20090;-73
2022/11/06 10:55:13;;;;;;;6.05;1.75;;;10.40;94.30;;;;;;5040476;28;20033;-73
2022/11/06 10:58:04;;;;;;;5.10;2.38;;;10.40;95.00;;;;;;5026590;28;20080;-73
2022/11/06 11:00:31;;;;;;;2.75;1.00;;;10.60;95.60;;;;;;5007073;28;20518;-73
2022/11/06 11:03:06;;;;;;;1.52;0.88;;;10.70;95.80;;;;;;5011998;28;20038;-73
2022/11/06 11:05:41;;;;;;;5.25;1.75;;;10.80;95.90;;;;;;5006158;28;20052;-73
2022/11/06 11:08:29;;;;;;;1.40;0.70;;;10.80;94.70;;;;;;5024890;28;20052;-73
2022/11/06 11:11:25;;;;;;;1.00;0.60;;;10.80;95.00;;;;;;5023794;28;20021;-73
2022/11/06 11:13:59;;;;;;;4.57;1.63;;;10.90;94.80;;;;;;5028304;28;20581;-73
2022/11/06 11:16:32;;;;;;;6.28;3.53;;;10.90;94.50;;;;;;5045140;28;20070;-73
2022/11/06 11:19:25;;;;;;;2.38;0.98;;;10.90;94.20;;;;;;5059707;28;20021;-73
2022/11/06 11:21:56;;;;;;;4.07;1.50;;;10.90;94.80;;;;;;5046950;28;20025;-73
2022/11/06 11:24:22;;;;;;;6.43;4.22;;;11.10;94.70;;;;;;5065962;28;20028;-73
2022/11/06 11:27:14;;;;;;;3.65;1.90;;;11.30;94.90;;;;;;5065855;28;20029;-73
2022/11/06 11:29:49;;;;;;;51.60;32.22;;;11.30;94.40;;;;;;5052549;28;20482;-73
2022/11/06 11:32:17;;;;;;;5.50;3.38;;;11.50;94.80;;;;;;5049223;28;20434;-72
2022/11/06 11:34:54;;;;;;;1.90;0.85;;;11.80;93.70;;;;;;5063513;28;20020;-73
2022/11/06 11:37:32;;;;;;;1.98;0.80;;;11.90;93.50;;;;;;5049508;28;20516;-73
2022/11/06 11:40:21;;;;;;;1.48;0.40;;;12.00;93.80;;;;;;5066025;28;20020;-73
2022/11/06 11:42:47;;;;;;;2.10;1.17;;;11.90;93.40;;;;;;5052687;28;20040;-73
2022/11/06 11:45:16;;;;;;;1.33;1.00;;;12.00;92.90;;;;;;5065475;28;20359;-72
2022/11/06 11:47:48;;;;;;;2.50;1.13;;;12.30;92.70;;;;;;5058580;28;20350;-72
2022/11/06 11:50:19;;;;;;;2.10;0.65;;;12.30;92.80;;;;;;5038622;28;20044;-72
2022/11/06 11:52:51;;;;;;;1.95;0.82;;;12.10;92.30;;;;;;5064156;28;20556;-73
2022/11/06 11:55:20;;;;;;;0.50;0.50;;;12.10;92.40;;;;;;5045734;28;20035;-73
2022/11/06 11:57:50;;;;;;;1.45;0.63;;;12.20;92.40;;;;;;5042860;28;20103;-75
2022/11/06 12:00:18;;;;;;;1.10;0.47;;;12.70;94.90;;;;;;5042520;28;20040;-74
2022/11/06 12:02:50;;;;;;;1.58;0.55;;;13.20;94.40;;;;;;5047486;28;20525;-75
2022/11/06 12:05:37;;;;;;;1.20;0.45;;;13.10;93.00;;;;;;5047101;28;20032;-74
2022/11/06 12:08:05;;;;;;;1.08;0.50;;;13.10;93.40;;;;;;5039682;28;20099;-74
2022/11/06 12:10:36;;;;;;;0.88;0.40;;;12.70;93.00;;;;;;5047271;28;20497;-73
2022/11/06 12:13:22;;;;;;;2.00;0.47;;;12.60;92.70;;;;;;5048723;28;20024;-73
2022/11/06 12:16:11;;;;;;;1.05;0.50;;;12.60;92.40;;;;;;5030598;28;20040;-73
2022/11/06 12:18:47;;;;;;;0.93;0.50;;;12.50;92.40;;;;;;5048494;28;20490;-73
2022/11/06 12:21:33;;;;;;;0.75;0.40;;;12.50;92.40;;;;;;5030921;28;20025;-73
2022/11/06 12:24:09;;;;;;;1.20;0.40;;;12.60;92.10;;;;;;5048456;28;20033;-73
2022/11/06 12:27:01;;;;;;;1.33;0.60;;;12.50;91.90;;;;;;5048362;28;20033;-73
2022/11/06 12:29:35;;;;;;;2.33;0.70;;;12.40;91.90;;;;;;5037670;28;20048;-73
2022/11/06 12:32:17;;;;;;;1.25;0.60;;;12.50;92.80;;;;;;5048512;28;20025;-74
2022/11/06 12:35:08;;;;;;;2.42;0.57;;;12.70;92.80;;;;;;5048553;28;20106;-73
2022/11/06 12:37:51;;;;;;;1.15;0.47;;;12.60;92.40;;;;;;5048688;28;20131;-73
2022/11/06 12:40:24;;;;;;;1.02;0.50;;;12.40;91.60;;;;;;5048631;28;20112;-73
2022/11/06 12:42:58;;;;;;;2.70;0.70;;;12.40;91.80;;;;;;5048404;28;20174;-73
2022/11/06 12:45:47;;;;;;;1.23;0.50;;;12.50;92.50;;;;;;5048466;28;20758;-73
2022/11/06 12:48:32;;;;;;;1.52;0.60;;;12.50;92.00;;;;;;5047772;28;20025;-73
2022/11/06 12:50:57;;;;;;;;;;;12.60;92.30;;;;;;5048996;28;20064;-73
2022/11/06 12:53:30;;;;;;;11.73;7.10;;;12.60;92.70;;;;;;5048509;28;19952;-73
2022/11/06 12:56:09;;;;;;;3.92;1.13;;;12.70;92.50;;;;;;5047022;28;20090;-74
2022/11/06 12:58:49;;;;;;;8.25;4.60;;;12.80;93.00;;;;;;5045806;28;20053;-74
2022/11/06 13:01:21;;;;;;;11.45;5.55;;;12.70;92.30;;;;;;5045749;28;20071;-74
2022/11/06 13:04:11;;;;;;;4.35;2.00;;;12.70;92.50;;;;;;5051041;28;20427;-75
2022/11/06 13:06:58;;;;;;;1.90;0.90;;;12.90;93.00;;;;;;5045614;28;20033;-73
2022/11/06 13:09:38;;;;;;;10.98;6.78;;;12.80;92.10;;;;;;5045432;28;20025;-73
2022/11/06 13:12:24;;;;;;;1.02;0.50;;;12.90;92.50;;;;;;5044932;28;20367;-73
2022/11/06 13:15:28;;;;;;;1.02;0.50;;;12.80;91.90;;;;;;5044441;28;20037;-73
2022/11/06 13:18:12;;;;;;;1.23;0.60;;;13.00;92.60;;;;;;4963475;28;20066;-74
2022/11/06 13:20:58;;;;;;;0.90;0.40;;;12.90;91.40;;;;;;5040419;28;20044;-73
2022/11/06 13:23:58;;;;;;;1.30;0.60;;;12.80;92.10;;;;;;5047857;28;20049;-73
2022/11/06 13:26:37;;;;;;;1.10;0.40;;;12.80;91.70;;;;;;5031050;28;20041;-73
2022/11/06 13:29:07;;;;;;;0.60;0.30;;;12.90;91.70;;;;;;5048759;28;20493;-74
2022/11/06 13:31:56;;;;;;;1.33;0.60;;;12.90;91.60;;;;;;5049049;28;20036;-73
2022/11/06 13:34:32;;;;;;;20.25;16.08;;;12.80;91.40;;;;;;5048918;28;20039;-73